createdAt,value
2017-10-18T00:00:32.845Z,28.70
2017-10-18T00:03:01.944Z,21.90
2017-10-18T00:05:30.267Z,19.53
2017-10-18T00:08:00.103Z,21.07
2017-10-18T00:10:39.001Z,25.87
2017-10-18T00:13:07.505Z,20.60
2017-10-18T00:15:35.825Z,19.20
2017-10-18T00:18:04.926Z,29.13
2017-10-18T00:20:34.055Z,22.13
2017-10-18T00:23:02.367Z,19.90
2017-10-18T00:25:30.678Z,23.83
2017-10-18T00:27:59.781Z,24.07
2017-10-18T00:30:28.873Z,34.70
2017-10-18T00:32:57.203Z,26.17
2017-10-18T00:35:25.519Z,29.10
2017-10-18T00:37:53.938Z,28.70
2017-10-18T00:40:22.289Z,26.17
2017-10-18T00:42:51.988Z,26.20
2017-10-18T00:45:25.381Z,24.57
2017-10-18T00:47:53.874Z,18.70
2017-10-18T00:50:22.349Z,22.50
2017-10-18T00:52:52.097Z,24.97
2017-10-18T00:55:21.175Z,19.47
2017-10-18T00:57:49.511Z,19.87
2017-10-18T01:00:17.859Z,23.60
2017-10-18T01:02:46.933Z,24.47
2017-10-18T01:05:15.291Z,28.03
2017-10-18T01:07:43.601Z,30.37
2017-10-18T01:10:12.019Z,20.57
2017-10-18T01:12:40.417Z,26.50
2017-10-18T01:15:09.103Z,29.30
2017-10-18T01:17:37.461Z,25.70
2017-10-18T01:20:06.533Z,22.10
2017-10-18T01:22:34.889Z,26.33
2017-10-18T01:25:03.225Z,30.50
2017-10-18T01:27:32.318Z,21.90
2017-10-18T01:30:00.631Z,23.47
2017-10-18T01:32:28.988Z,24.37
2017-10-18T01:34:58.077Z,19.60
2017-10-18T01:37:26.399Z,25.30
2017-10-18T01:39:54.737Z,18.40
2017-10-18T01:42:23.074Z,27.67
2017-10-18T01:44:51.397Z,32.03
2017-10-18T01:47:19.729Z,21.87
2017-10-18T01:49:48.053Z,25.73
2017-10-18T01:52:16.377Z,16.90
2017-10-18T01:54:44.704Z,24.13
2017-10-18T01:57:13.043Z,25.17
2017-10-18T01:59:41.381Z,26.53
2017-10-18T02:02:09.721Z,21.07
2017-10-18T02:04:38.045Z,23.40
2017-10-18T02:07:06.366Z,33.60
2017-10-18T02:09:34.749Z,19.70
2017-10-18T02:12:03.182Z,22.73
2017-10-18T02:14:31.511Z,14.90
2017-10-18T02:16:59.825Z,21.83
2017-10-18T02:19:28.135Z,20.43
2017-10-18T02:21:56.450Z,23.63
2017-10-18T02:24:25.528Z,28.37
2017-10-18T02:26:53.856Z,18.27
2017-10-18T02:29:22.202Z,21.10
2017-10-18T02:31:51.282Z,21.60
2017-10-18T02:34:19.587Z,31.00
2017-10-18T02:36:48.674Z,17.40
2017-10-18T02:39:17.773Z,21.43
2017-10-18T02:41:46.878Z,21.33
2017-10-18T02:44:15.950Z,19.00
2017-10-18T02:46:44.268Z,22.17
2017-10-18T02:49:12.576Z,26.67
2017-10-18T02:51:40.894Z,19.10
2017-10-18T02:54:09.201Z,25.80
2017-10-18T02:56:38.289Z,19.50
2017-10-18T02:59:06.908Z,17.80
2017-10-18T03:01:35.245Z,22.97
2017-10-18T03:04:03.582Z,25.97
2017-10-18T03:06:31.907Z,25.80
2017-10-18T03:09:00.252Z,18.60
2017-10-18T03:11:28.684Z,20.27
2017-10-18T03:13:56.993Z,17.63
2017-10-18T03:16:25.320Z,21.20
2017-10-18T03:18:53.639Z,23.53
2017-10-18T03:21:22.731Z,23.00
2017-10-18T03:23:51.840Z,20.23
2017-10-18T03:26:20.929Z,24.23
2017-10-18T03:28:49.891Z,21.77
2017-10-18T03:31:18.940Z,22.13
2017-10-18T03:33:47.266Z,21.10
2017-10-18T03:36:15.581Z,23.57
2017-10-18T03:38:44.680Z,22.40
2017-10-18T03:41:13.010Z,19.90
2017-10-18T03:43:41.330Z,20.70
2017-10-18T03:46:09.672Z,20.40
2017-10-18T03:48:37.988Z,21.40
2017-10-18T03:51:07.085Z,23.23
2017-10-18T03:53:35.390Z,19.93
2017-10-18T03:56:04.492Z,35.37
2017-10-18T03:58:32.840Z,21.67
2017-10-18T04:01:01.172Z,26.10
2017-10-18T04:03:29.494Z,23.57
2017-10-18T04:05:57.810Z,24.93
2017-10-18T04:08:26.194Z,20.47
2017-10-18T04:10:54.516Z,22.53
2017-10-18T04:13:22.814Z,27.27
2017-10-18T04:15:51.121Z,32.03
2017-10-18T04:18:19.455Z,24.60
2017-10-18T04:20:47.758Z,26.60
2017-10-18T04:23:16.080Z,30.87
2017-10-18T04:25:44.408Z,33.00
2017-10-18T04:28:12.712Z,27.60
2017-10-18T04:30:41.038Z,22.17
2017-10-18T04:33:09.332Z,23.90
2017-10-18T04:35:37.665Z,30.03
2017-10-18T04:38:06.752Z,23.03
2017-10-18T04:40:35.068Z,20.90
2017-10-18T04:43:03.380Z,31.43
2017-10-18T04:45:32.571Z,23.23
2017-10-18T04:48:00.884Z,21.23
2017-10-18T04:50:29.260Z,25.30
2017-10-18T04:52:57.599Z,26.73
2017-10-18T04:55:25.893Z,20.43
2017-10-18T04:57:54.205Z,18.57
2017-10-18T05:00:22.576Z,23.80
2017-10-18T05:02:50.923Z,24.63
2017-10-18T05:05:19.221Z,27.97
2017-10-18T05:07:47.568Z,21.93
2017-10-18T05:10:16.638Z,23.27
2017-10-18T05:12:44.936Z,29.93
2017-10-18T05:15:14.040Z,19.10
2017-10-18T05:17:42.352Z,30.23
2017-10-18T05:20:10.650Z,23.53
2017-10-18T05:22:38.960Z,22.50
2017-10-18T05:25:07.262Z,26.77
2017-10-18T05:27:35.594Z,20.40
2017-10-18T05:30:03.908Z,30.67
2017-10-18T05:32:32.210Z,23.17
2017-10-18T05:35:00.528Z,28.00
2017-10-18T05:37:28.850Z,25.73
2017-10-18T05:39:57.224Z,29.20
2017-10-18T05:42:25.538Z,21.73
2017-10-18T05:44:53.866Z,25.53
2017-10-18T05:47:22.995Z,24.43
2017-10-18T05:49:51.315Z,26.43
2017-10-18T05:52:20.428Z,26.60
2017-10-18T05:54:49.972Z,26.83
2017-10-18T05:57:18.296Z,22.03
2017-10-18T05:59:46.654Z,15.17
2017-10-18T06:02:14.957Z,17.80
2017-10-18T06:04:43.260Z,29.67
2017-10-18T06:07:11.589Z,24.47
2017-10-18T06:09:40.558Z,22.10
2017-10-18T06:12:08.845Z,18.67
2017-10-18T06:14:37.166Z,27.07
2017-10-18T06:17:05.468Z,21.07
2017-10-18T06:19:34.532Z,23.23
2017-10-18T06:22:02.868Z,29.00
2017-10-18T06:24:31.176Z,21.90
2017-10-18T06:26:59.496Z,24.43
2017-10-18T06:29:27.795Z,23.17
2017-10-18T06:31:56.870Z,20.43
2017-10-18T06:34:25.187Z,22.17
2017-10-18T06:36:54.288Z,17.13
2017-10-18T06:39:22.590Z,31.63
2017-10-18T06:41:50.916Z,18.87
2017-10-18T06:44:19.222Z,25.83
2017-10-18T06:46:48.347Z,29.47
2017-10-18T06:49:16.671Z,27.07
2017-10-18T06:51:45.560Z,28.13
2017-10-18T06:54:13.898Z,24.23
2017-10-18T06:56:42.244Z,31.37
2017-10-18T06:59:10.557Z,26.03
2017-10-18T07:01:38.853Z,25.63
2017-10-18T07:04:10.694Z,27.77
2017-10-18T07:06:39.772Z,27.37
2017-10-18T07:09:08.096Z,30.77
2017-10-18T07:11:36.403Z,23.67
2017-10-18T07:14:04.717Z,26.10
2017-10-18T07:16:33.029Z,31.07
2017-10-18T07:19:01.339Z,29.13
2017-10-18T07:21:29.675Z,28.27
2017-10-18T07:23:58.867Z,25.13
2017-10-18T07:26:27.176Z,22.20
2017-10-18T07:28:55.471Z,29.30
2017-10-18T07:31:23.775Z,21.73
2017-10-18T07:33:52.069Z,22.23
2017-10-18T07:36:20.409Z,24.37
2017-10-18T07:38:48.708Z,29.30
2017-10-18T07:41:17.117Z,30.43
2017-10-18T07:43:45.444Z,29.37
2017-10-18T07:46:14.547Z,31.83
2017-10-18T07:48:44.193Z,24.63
2017-10-18T07:51:12.508Z,34.30
2017-10-18T07:53:43.250Z,25.90
2017-10-18T07:56:11.548Z,21.27
2017-10-18T07:58:39.853Z,28.17
2017-10-18T08:01:08.182Z,33.30
2017-10-18T08:03:37.256Z,22.90
2017-10-18T08:06:05.553Z,19.53
2017-10-18T08:08:33.887Z,22.03
2017-10-18T08:11:02.185Z,29.37
2017-10-18T08:13:30.510Z,25.77
2017-10-18T08:15:58.838Z,21.60
2017-10-18T08:18:27.154Z,24.03
2017-10-18T08:20:55.502Z,34.10
2017-10-18T08:23:23.827Z,23.53
2017-10-18T08:25:52.135Z,26.33
2017-10-18T08:28:21.236Z,28.40
2017-10-18T08:30:50.305Z,23.97
2017-10-18T08:33:18.611Z,23.17
2017-10-18T08:35:47.771Z,27.27
2017-10-18T08:38:16.063Z,23.70
2017-10-18T08:40:44.376Z,23.57
2017-10-18T08:43:13.446Z,24.13
2017-10-18T08:45:41.781Z,21.97
2017-10-18T08:48:10.087Z,19.13
2017-10-18T08:50:38.420Z,18.60
2017-10-18T08:53:06.786Z,30.70
2017-10-18T08:55:35.123Z,16.60
2017-10-18T08:58:03.445Z,24.47
2017-10-18T09:00:31.801Z,30.40
2017-10-18T09:03:00.125Z,28.93
2017-10-18T09:05:28.431Z,23.60
2017-10-18T09:07:57.516Z,25.73
2017-10-18T09:10:26.602Z,23.33
2017-10-18T09:12:54.908Z,24.57
2017-10-18T09:15:23.985Z,27.40
2017-10-18T09:17:52.314Z,23.47
2017-10-18T09:20:20.629Z,30.53
2017-10-18T09:22:48.933Z,22.87
2017-10-18T09:25:17.258Z,22.63
2017-10-18T09:27:45.550Z,33.50
2017-10-18T09:30:13.871Z,36.90
2017-10-18T09:32:42.215Z,26.17
2017-10-18T09:35:10.555Z,27.87
2017-10-18T09:37:39.633Z,29.33
2017-10-18T09:40:08.599Z,26.70
2017-10-18T09:42:36.939Z,22.80
2017-10-18T09:45:05.255Z,26.77
2017-10-18T09:47:33.571Z,26.43
2017-10-18T09:50:01.905Z,31.37
2017-10-18T09:52:30.222Z,26.37
2017-10-18T09:54:58.605Z,31.80
2017-10-18T09:57:26.912Z,25.00
2017-10-18T09:59:55.237Z,24.20
2017-10-18T10:02:23.600Z,28.73
2017-10-18T10:04:51.945Z,28.20
2017-10-18T10:07:20.273Z,30.07
2017-10-18T10:09:48.585Z,24.70
2017-10-18T10:12:16.904Z,27.03
2017-10-18T10:14:45.224Z,26.73
2017-10-18T10:17:14.186Z,19.87
2017-10-18T10:19:42.521Z,30.40
2017-10-18T10:22:10.838Z,33.57
2017-10-18T10:24:39.165Z,24.13
2017-10-18T10:27:07.482Z,36.33
2017-10-18T10:29:35.816Z,29.37
2017-10-18T10:32:04.123Z,29.47
2017-10-18T10:34:32.431Z,32.20
2017-10-18T10:37:00.758Z,33.73
2017-10-18T10:39:29.851Z,25.97
2017-10-18T10:41:58.957Z,33.20
2017-10-18T10:44:27.868Z,33.90
2017-10-18T10:46:56.254Z,32.93
2017-10-18T10:49:24.554Z,33.97
2017-10-18T10:51:52.898Z,29.53
2017-10-18T10:54:21.220Z,30.00
2017-10-18T10:56:49.548Z,31.37
2017-10-18T10:59:18.641Z,37.27
2017-10-18T11:01:46.972Z,29.33
2017-10-18T11:04:15.309Z,33.23
2017-10-18T11:06:43.628Z,26.60
2017-10-18T11:09:11.948Z,33.13
2017-10-18T11:11:40.259Z,35.67
2017-10-18T11:14:09.348Z,29.80
2017-10-18T11:16:37.675Z,32.57
2017-10-18T11:19:05.984Z,35.87
2017-10-18T11:21:34.316Z,29.20
2017-10-18T11:24:02.627Z,39.20
2017-10-18T11:26:30.938Z,30.70
2017-10-18T11:28:59.269Z,28.87
2017-10-18T11:31:27.572Z,32.33
2017-10-18T11:33:55.875Z,30.73
2017-10-18T11:36:24.190Z,26.23
2017-10-18T11:38:53.264Z,34.10
2017-10-18T11:41:21.579Z,29.40
2017-10-18T11:43:51.361Z,37.13
2017-10-18T11:46:19.683Z,36.77
2017-10-18T11:48:48.005Z,33.77
2017-10-18T11:51:16.316Z,31.23
2017-10-18T11:53:44.612Z,29.80
2017-10-18T11:56:13.722Z,28.10
2017-10-18T11:58:42.815Z,27.70
2017-10-18T12:01:11.888Z,36.47
2017-10-18T12:03:40.217Z,38.53
2017-10-18T12:06:08.524Z,31.47
2017-10-18T12:08:36.831Z,31.10
2017-10-18T12:11:05.182Z,30.80
2017-10-18T12:13:33.515Z,34.17
2017-10-18T12:16:01.856Z,31.73
2017-10-18T12:18:30.170Z,30.13
2017-10-18T12:20:58.482Z,29.57
2017-10-18T12:23:26.919Z,43.07
2017-10-18T12:25:55.236Z,30.10
2017-10-18T12:28:24.329Z,30.87
2017-10-18T12:30:53.410Z,32.73
2017-10-18T12:33:21.715Z,32.60
2017-10-18T12:35:50.774Z,34.10
2017-10-18T12:38:19.082Z,30.70
2017-10-18T12:40:47.387Z,32.40
2017-10-18T12:43:15.728Z,28.80
2017-10-18T12:45:44.066Z,28.90
2017-10-18T12:48:12.398Z,25.10
2017-10-18T12:50:40.805Z,31.83
2017-10-18T12:53:09.901Z,26.23
2017-10-18T12:55:38.971Z,30.33
2017-10-18T12:58:07.288Z,30.07
2017-10-18T13:00:36.369Z,29.40
2017-10-18T13:03:04.705Z,34.30
2017-10-18T13:05:33.043Z,29.03
2017-10-18T13:08:02.116Z,32.07
2017-10-18T13:10:30.432Z,32.47
2017-10-18T13:12:59.519Z,32.70
2017-10-18T13:15:27.834Z,27.90
2017-10-18T13:17:56.154Z,26.37
2017-10-18T13:20:24.500Z,33.40
2017-10-18T13:22:52.817Z,20.67
2017-10-18T13:25:21.140Z,25.80
2017-10-18T13:27:50.222Z,27.13
2017-10-18T13:30:18.537Z,29.80
2017-10-18T13:32:46.860Z,31.70
2017-10-18T13:35:15.178Z,27.40
2017-10-18T13:37:44.279Z,27.40
2017-10-18T13:40:13.358Z,28.87
2017-10-18T13:42:41.671Z,33.57
2017-10-18T13:45:10.776Z,29.93
2017-10-18T13:47:39.079Z,29.57
2017-10-18T13:50:07.407Z,40.23
2017-10-18T13:52:35.718Z,24.93
2017-10-18T13:55:04.036Z,46.10
2017-10-18T13:57:32.401Z,31.10
2017-10-18T14:00:00.735Z,34.47
2017-10-18T14:02:29.045Z,37.43
2017-10-18T14:04:58.144Z,33.50
2017-10-18T14:07:26.459Z,37.63
2017-10-18T14:09:54.766Z,34.70
2017-10-18T14:12:23.074Z,43.80
2017-10-18T14:14:52.162Z,37.83
2017-10-18T14:17:20.487Z,34.80
2017-10-18T14:19:48.795Z,42.23
2017-10-18T14:22:17.106Z,39.73
2017-10-18T14:24:45.416Z,44.23
2017-10-18T14:27:13.768Z,36.27
2017-10-18T14:29:42.099Z,37.90
2017-10-18T14:32:10.402Z,45.23
2017-10-18T14:34:38.734Z,40.23
2017-10-18T14:37:07.805Z,40.03
2017-10-18T14:39:36.118Z,44.77
2017-10-18T14:42:05.214Z,40.37
2017-10-18T14:44:34.301Z,38.80
2017-10-18T14:47:02.627Z,43.57
2017-10-18T14:49:30.940Z,45.10
2017-10-18T14:51:59.256Z,46.17
2017-10-18T14:54:28.349Z,34.70
2017-10-18T14:56:57.456Z,36.67
2017-10-18T14:59:26.556Z,41.90
2017-10-18T15:01:55.653Z,40.57
2017-10-18T15:04:24.724Z,39.70
2017-10-18T15:07:14.341Z,40.83
2017-10-18T15:09:42.662Z,38.67
2017-10-18T15:12:10.983Z,44.93
2017-10-18T15:14:43.439Z,36.50
2017-10-18T15:17:14.004Z,46.00
2017-10-18T15:19:42.451Z,36.70
2017-10-18T15:22:10.753Z,42.93
2017-10-18T15:24:39.847Z,36.30
2017-10-18T15:27:08.179Z,50.90
2017-10-18T15:29:36.913Z,40.00
2017-10-18T15:32:07.870Z,40.37
2017-10-18T15:34:37.027Z,42.13
2017-10-18T15:37:05.338Z,40.67
2017-10-18T15:39:33.669Z,39.60
2017-10-18T15:42:02.050Z,40.97
2017-10-18T15:44:30.372Z,46.10
2017-10-18T15:46:58.687Z,44.93
2017-10-18T15:49:27.811Z,40.43
2017-10-18T15:51:56.137Z,39.13
2017-10-18T15:54:24.431Z,43.80
2017-10-18T15:56:52.752Z,49.57
2017-10-18T15:59:21.062Z,44.30
2017-10-18T16:01:49.424Z,38.27
2017-10-18T16:04:17.743Z,44.33
2017-10-18T16:06:46.061Z,43.23
2017-10-18T16:09:15.157Z,48.17
2017-10-18T16:11:44.225Z,38.73
2017-10-18T16:14:12.536Z,47.93
2017-10-18T16:16:41.618Z,43.90
2017-10-18T16:19:09.995Z,45.63
2017-10-18T16:21:38.374Z,51.80
2017-10-18T16:24:06.702Z,46.13
2017-10-18T16:26:35.003Z,50.33
2017-10-18T16:29:03.317Z,46.13
2017-10-18T16:31:31.653Z,52.90
2017-10-18T16:33:59.955Z,56.83
2017-10-18T16:36:28.294Z,54.73
2017-10-18T16:38:57.362Z,54.87
2017-10-18T16:41:25.755Z,60.83
2017-10-18T16:43:54.064Z,57.97
2017-10-18T16:46:22.374Z,54.87
2017-10-18T16:48:50.711Z,56.03
2017-10-18T16:51:19.790Z,59.20
2017-10-18T16:53:48.129Z,60.37
2017-10-18T16:56:16.439Z,52.63
2017-10-18T16:58:44.762Z,55.77
2017-10-18T17:01:13.838Z,57.20
2017-10-18T17:03:42.149Z,63.53
2017-10-18T17:06:11.218Z,55.47
2017-10-18T17:08:39.543Z,61.27
2017-10-18T17:11:07.880Z,64.57
2017-10-18T17:13:36.232Z,63.03
2017-10-18T17:16:04.734Z,54.70
2017-10-18T17:18:33.083Z,64.10
2017-10-18T17:21:01.382Z,66.90
2017-10-18T17:23:29.684Z,61.40
2017-10-18T17:25:58.038Z,66.73
2017-10-18T17:28:26.327Z,62.40
2017-10-18T17:30:54.644Z,59.87
2017-10-18T17:33:22.982Z,60.60
2017-10-18T17:35:51.294Z,61.13
2017-10-18T17:38:19.671Z,59.30
2017-10-18T17:40:48.892Z,65.97
2017-10-18T17:43:17.211Z,65.17
2017-10-18T17:45:45.603Z,60.73
2017-10-18T17:48:13.904Z,69.33
2017-10-18T17:50:42.217Z,61.07
2017-10-18T17:53:10.533Z,67.70
2017-10-18T17:55:38.846Z,65.83
2017-10-18T17:58:07.170Z,67.53
2017-10-18T18:00:35.988Z,73.43
2017-10-18T18:03:05.103Z,67.83
2017-10-18T18:05:33.429Z,63.60
2017-10-18T18:08:01.757Z,66.10
2017-10-18T18:10:30.064Z,66.93
2017-10-18T18:12:58.381Z,68.43
2017-10-18T18:15:26.703Z,69.77
2017-10-18T18:17:55.017Z,63.87
2017-10-18T18:20:23.342Z,65.87
2017-10-18T18:22:51.649Z,71.43
2017-10-18T18:25:19.965Z,67.60
2017-10-18T18:27:48.296Z,65.00
2017-10-18T18:30:17.373Z,66.77
2017-10-18T18:32:45.711Z,69.07
2017-10-18T18:35:14.029Z,70.97
2017-10-18T18:37:42.335Z,77.97
2017-10-18T18:40:11.564Z,67.23
2017-10-18T18:42:39.883Z,66.10
2017-10-18T18:45:08.203Z,69.10
2017-10-18T18:47:37.310Z,77.67
2017-10-18T18:50:06.384Z,71.23
2017-10-18T18:52:34.779Z,70.73
2017-10-18T18:55:03.101Z,72.07
2017-10-18T18:57:31.410Z,68.63
2017-10-18T18:59:59.756Z,71.83
2017-10-18T19:02:28.094Z,76.30
2017-10-18T19:04:56.425Z,66.80
2017-10-18T19:07:25.483Z,70.63
2017-10-18T19:09:53.798Z,66.23
2017-10-18T19:12:22.187Z,67.50
2017-10-18T19:14:50.498Z,65.73
2017-10-18T19:17:18.824Z,70.10
2017-10-18T19:19:47.903Z,72.47
2017-10-18T19:22:16.223Z,69.23
2017-10-18T19:24:44.537Z,69.50
2017-10-18T19:27:12.857Z,68.27
2017-10-18T19:29:41.170Z,65.80
2017-10-18T19:32:09.475Z,73.67
2017-10-18T19:34:37.815Z,73.40
2017-10-18T19:37:06.882Z,66.60
2017-10-18T19:39:38.376Z,69.47
2017-10-18T19:42:06.745Z,66.30
2017-10-18T19:44:35.827Z,72.20
2017-10-18T19:47:04.132Z,82.93
2017-10-18T19:49:33.223Z,73.43
2017-10-18T19:52:02.296Z,68.77
2017-10-18T19:54:30.621Z,75.37
2017-10-18T19:56:58.947Z,79.87
2017-10-18T19:59:27.265Z,74.73
2017-10-18T20:01:56.352Z,70.53
2017-10-18T20:04:24.662Z,84.50
2017-10-18T20:06:53.767Z,86.10
2017-10-18T20:09:22.101Z,73.67
2017-10-18T20:11:50.469Z,79.27
2017-10-18T20:14:18.786Z,75.03
2017-10-18T20:16:47.097Z,80.10
2017-10-18T20:19:15.421Z,75.70
2017-10-18T20:21:43.738Z,83.07
2017-10-18T20:24:12.809Z,76.97
2017-10-18T20:26:41.131Z,77.20
2017-10-18T20:29:10.293Z,86.77
2017-10-18T20:31:38.639Z,75.70
2017-10-18T20:34:06.966Z,77.43
2017-10-18T20:36:35.300Z,79.10
2017-10-18T20:39:03.639Z,74.57
2017-10-18T20:41:31.948Z,80.30
2017-10-18T20:44:00.249Z,72.70
2017-10-18T20:46:28.544Z,83.27
2017-10-18T20:48:56.856Z,78.83
2017-10-18T20:51:25.184Z,80.40
2017-10-18T20:53:53.501Z,81.70
2017-10-18T20:56:21.838Z,79.27
2017-10-18T20:58:50.440Z,76.30
2017-10-18T21:01:18.875Z,90.40
2017-10-18T21:03:51.555Z,74.40
2017-10-18T21:06:21.455Z,82.20
2017-10-18T21:08:49.843Z,81.80
2017-10-18T21:11:18.949Z,79.40
2017-10-18T21:13:47.278Z,80.10
2017-10-18T21:16:15.588Z,83.63
2017-10-18T21:18:44.059Z,81.37
2017-10-18T21:21:12.367Z,81.10
2017-10-18T21:23:40.694Z,81.80
2017-10-18T21:26:09.770Z,76.00
2017-10-18T21:28:38.084Z,76.03
2017-10-18T21:31:07.178Z,80.33
2017-10-18T21:33:36.258Z,81.37
2017-10-18T21:36:04.581Z,79.23
2017-10-18T21:38:32.886Z,82.07
2017-10-18T21:41:01.206Z,80.83
2017-10-18T21:43:30.320Z,80.73
2017-10-18T21:45:59.382Z,73.37
2017-10-18T21:48:27.707Z,71.03
2017-10-18T21:50:56.791Z,81.60
2017-10-18T21:53:25.121Z,78.23
2017-10-18T21:55:53.426Z,78.97
2017-10-18T21:58:21.760Z,76.97
2017-10-18T22:00:50.069Z,77.87
2017-10-18T22:03:18.375Z,77.67
2017-10-18T22:05:46.694Z,82.67
2017-10-18T22:08:15.781Z,73.50
2017-10-18T22:10:44.099Z,76.10
2017-10-18T22:13:12.541Z,81.13
2017-10-18T22:15:41.634Z,73.77
2017-10-18T22:18:09.978Z,73.87
2017-10-18T22:20:38.293Z,75.77
2017-10-18T22:23:06.612Z,75.47
2017-10-18T22:25:34.926Z,75.83
2017-10-18T22:28:03.268Z,73.73
2017-10-18T22:30:31.573Z,73.80
2017-10-18T22:32:59.895Z,79.83
2017-10-18T22:35:28.197Z,70.87
2017-10-18T22:37:56.521Z,69.33
2017-10-18T22:40:24.830Z,82.20
2017-10-18T22:42:53.142Z,71.40
2017-10-18T22:45:22.227Z,78.80
2017-10-18T22:47:50.555Z,81.80
2017-10-18T22:50:18.883Z,80.00
2017-10-18T22:52:47.183Z,76.27
2017-10-18T22:55:15.507Z,75.87
2017-10-18T22:57:43.821Z,76.37
2017-10-18T23:00:12.211Z,74.83
2017-10-18T23:02:40.514Z,82.33
2017-10-18T23:05:08.819Z,71.37
2017-10-18T23:07:37.125Z,73.67
2017-10-18T23:10:05.448Z,70.17
2017-10-18T23:12:33.771Z,76.33
2017-10-18T23:15:02.106Z,68.30
2017-10-18T23:17:31.174Z,71.97
2017-10-18T23:19:59.481Z,75.37
2017-10-18T23:22:27.789Z,71.67
2017-10-18T23:24:56.863Z,76.70
2017-10-18T23:27:25.182Z,69.43
2017-10-18T23:29:53.530Z,74.27
2017-10-18T23:32:21.832Z,75.47
2017-10-18T23:34:50.247Z,76.20
2017-10-18T23:37:18.565Z,72.57
2017-10-18T23:39:46.879Z,75.80
2017-10-18T23:42:15.957Z,77.87
2017-10-18T23:44:44.279Z,84.37
2017-10-18T23:47:12.603Z,71.77
2017-10-18T23:49:40.955Z,77.47
2017-10-18T23:52:09.267Z,82.23
2017-10-18T23:54:37.592Z,75.23
2017-10-18T23:57:06.657Z,76.97
2017-10-18T23:59:34.978Z,74.23
